Time;durP1;ratioP1;P1;durP2;ratioP2;P2;SDS_P1;SDS_P2;PMS_P1;PMS_P2;Temp;Humidity;BMP_temperature;BMP_pressure;BME280_temperature;BME280_humidity;BME280_pressure;Samples;Min_cycle;Max_cycle;Signal;HPM_P1;HPM_P2
2021/03/23 00:00:43;;;;;;;2.88;2.63;;;;;;;3.65;69.39;93966.88;5011984;28;20268;-70
2021/03/23 00:03:13;;;;;;;3.40;2.63;;;;;;;3.39;70.79;93967.06;5011653;28;20215;-71
2021/03/23 00:05:39;;;;;;;3.15;2.53;;;;;;;3.55;70.05;93964.63;5010631;28;20185;-70
2021/03/23 00:08:05;;;;;;;3.17;2.70;;;;;;;3.62;69.05;93967.53;5010487;28;20180;-70
2021/03/23 00:10:31;;;;;;;2.80;2.53;;;;;;;3.66;69.45;93965.78;5011865;28;20173;-70
2021/03/23 00:12:57;;;;;;;3.00;2.80;;;;;;;3.59;69.59;93954.19;5010452;28;20181;-71
2021/03/23 00:15:22;;;;;;;3.80;2.90;;;;;;;3.36;70.19;93961.66;5010523;28;20200;-70
2021/03/23 00:17:49;;;;;;;3.80;3.10;;;;;;;3.18;71.27;93968.91;5011775;28;20199;-70
2021/03/23 00:20:16;;;;;;;2.90;2.60;;;;;;;2.87;70.47;93967.41;5011407;28;20177;-69
2021/03/23 00:22:42;;;;;;;3.42;2.60;;;;;;;3.07;69.13;93973.78;5011704;28;20227;-71
2021/03/23 00:25:08;;;;;;;3.03;2.70;;;;;;;3.18;69.19;93974.97;5011585;28;20185;-70
2021/03/23 00:27:34;;;;;;;4.47;2.97;;;;;;;3.40;68.17;93976.53;5011627;28;20205;-71
2021/03/23 00:30:00;;;;;;;3.63;2.90;;;;;;;3.34;68.38;93980.44;5011482;28;20271;-71
2021/03/23 00:32:26;;;;;;;3.83;3.07;;;;;;;3.41;67.49;93974.66;5011564;28;20231;-70
2021/03/23 00:34:51;;;;;;;3.37;3.07;;;;;;;3.25;67.96;93982.38;5011497;28;20204;-69
2021/03/23 00:37:17;;;;;;;3.60;2.70;;;;;;;3.44;67.38;93982.72;5011500;28;20184;-70
2021/03/23 00:39:42;;;;;;;3.50;2.73;;;;;;;3.32;68.08;93980.00;5010133;28;20180;-70
2021/03/23 00:42:08;;;;;;;5.77;4.20;;;;;;;3.27;69.24;93989.97;5010468;28;20605;-70
2021/03/23 00:44:34;;;;;;;6.43;3.90;;;;;;;3.37;68.34;93987.75;5014843;28;20656;-71
2021/03/23 00:46:59;;;;;;;7.63;4.47;;;;;;;3.38;67.75;93985.88;4997681;28;20172;-70
2021/03/23 00:49:25;;;;;;;9.60;4.67;;;;;;;3.35;67.75;93995.19;5014349;28;20181;-70
2021/03/23 00:51:50;;;;;;;7.80;4.63;;;;;;;3.47;67.42;93991.84;5014712;28;20200;-71
2021/03/23 00:54:16;;;;;;;8.97;4.00;;;;;;;3.54;68.11;93992.13;5015366;28;20719;-70
2021/03/23 00:56:41;;;;;;;7.43;4.37;;;;;;;3.42;67.79;93989.41;5015017;28;20206;-71
2021/03/23 00:59:06;;;;;;;3.43;3.13;;;;;;;3.50;67.65;93998.38;5015213;28;20188;-71
2021/03/23 01:01:32;;;;;;;6.13;4.03;;;;;;;3.49;68.44;93994.97;5014956;28;20173;-71
2021/03/23 01:03:57;;;;;;;8.67;3.80;;;;;;;3.50;69.16;93998.38;5015079;28;20196;-69
2021/03/23 01:06:23;;;;;;;4.53;3.83;;;;;;;3.48;69.65;93997.91;5015091;28;20189;-70
2021/03/23 01:08:48;;;;;;;7.93;4.47;;;;;;;3.54;69.08;93999.28;5014752;28;20184;-71
2021/03/23 01:11:14;;;;;;;6.80;4.17;;;;;;;3.46;69.58;94003.50;5014922;28;20213;-71
2021/03/23 01:13:39;;;;;;;5.97;3.97;;;;;;;3.49;69.37;94002.88;5014746;28;20226;-71
2021/03/23 01:16:07;;;;;;;4.67;3.47;;;;;;;3.41;69.74;94003.69;5014919;28;20298;-70
2021/03/23 01:18:34;;;;;;;3.72;2.95;;;;;;;3.12;70.93;94004.50;5014603;28;20220;-70
2021/03/23 01:20:59;;;;;;;4.20;3.40;;;;;;;3.26;69.52;93999.00;5014678;28;20180;-71
2021/03/23 01:23:25;;;;;;;3.17;2.87;;;;;;;3.32;69.73;93998.47;5014282;28;20620;-70
2021/03/23 01:25:50;;;;;;;3.43;3.13;;;;;;;3.43;68.74;93996.25;5013394;28;20207;-69
2021/03/23 01:28:16;;;;;;;3.80;3.13;;;;;;;3.31;69.65;93993.50;5014566;28;20177;-70
2021/03/23 01:30:41;;;;;;;3.53;2.70;;;;;;;3.17;69.89;93986.63;5015990;28;20177;-70
2021/03/23 01:33:07;;;;;;;3.37;2.80;;;;;;;3.29;69.74;93988.56;5015059;28;20243;-70
2021/03/23 01:35:32;;;;;;;2.60;2.40;;;;;;;3.43;69.22;93991.72;5014221;28;20236;-69
2021/03/23 01:37:58;;;;;;;3.10;2.80;;;;;;;3.28;69.03;93984.38;5014756;28;20180;-70
2021/03/23 01:40:25;;;;;;;3.73;2.90;;;;;;;3.24;68.89;93987.97;5014301;28;20181;-70
2021/03/23 01:42:52;;;;;;;3.03;2.63;;;;;;;3.41;68.54;93995.78;5014315;28;20177;-69
2021/03/23 01:45:18;;;;;;;3.70;3.30;;;;;;;3.23;69.60;93991.72;5014197;28;20189;-70
2021/03/23 01:47:44;;;;;;;4.27;3.43;;;;;;;3.25;68.91;93997.44;5014227;28;20192;-70
2021/03/23 01:50:09;;;;;;;5.30;3.67;;;;;;;3.32;68.56;93993.22;5012878;28;20280;-69
2021/03/23 01:52:35;;;;;;;6.30;4.77;;;;;;;3.33;69.08;94001.88;5012855;28;20244;-70
2021/03/23 01:55:02;;;;;;;7.10;4.63;;;;;;;3.46;68.89;94003.50;5011815;28;20208;-69
2021/03/23 01:57:28;;;;;;;11.02;4.70;;;;;;;3.38;68.76;94005.13;4996790;28;20200;-69
2021/03/23 01:59:55;;;;;;;7.90;4.87;;;;;;;3.41;69.32;94009.72;5012800;28;20678;-69
2021/03/23 02:02:25;;;;;;;10.18;6.50;;;;;;;3.29;69.36;94008.91;4996442;28;20181;-70
2021/03/23 02:04:50;;;;;;;10.00;6.82;;;;;;;3.18;69.97;94005.84;5012333;28;20193;-70
2021/03/23 02:07:16;;;;;;;12.50;7.33;;;;;;;3.08;70.56;93993.03;5013777;28;20227;-70
2021/03/23 02:09:41;;;;;;;10.23;6.77;;;;;;;3.12;70.18;93991.28;5013875;28;20224;-69
2021/03/23 02:12:15;;;;;;;10.27;6.80;;;;;;;2.97;70.12;93989.97;4996275;28;20674;-69
2021/03/23 02:14:43;;;;;;;9.00;5.85;;;;;;;3.11;69.32;94001.06;5012591;28;20553;-69
2021/03/23 02:17:25;;;;;;;7.22;5.15;;;;;;;3.19;69.59;94002.88;4996195;28;20185;-69
2021/03/23 02:19:55;;;;;;;8.38;5.35;;;;;;;3.38;69.03;93997.19;5012241;28;20188;-69
2021/03/23 02:22:23;;;;;;;12.07;6.07;;;;;;;3.54;68.78;94002.69;5012231;28;20659;-71
2021/03/23 02:24:49;;;;;;;9.27;6.72;;;;;;;2.97;70.72;94007.66;4996225;28;20247;-70
2021/03/23 02:27:14;;;;;;;12.17;7.50;;;;;;;2.81;71.32;94010.84;4995974;28;20269;-70
2021/03/23 02:29:40;;;;;;;12.00;7.87;;;;;;;2.55;72.31;94010.94;5013497;28;20224;-70
2021/03/23 02:32:06;;;;;;;7.50;5.77;;;;;;;2.67;71.21;94009.50;5012202;28;20215;-71
2021/03/23 02:34:31;;;;;;;8.75;5.30;;;;;;;2.98;68.94;94007.38;5013238;28;20180;-71
2021/03/23 02:36:57;;;;;;;9.67;5.77;;;;;;;3.15;69.58;94006.50;5013096;28;20189;-70
2021/03/23 02:39:24;;;;;;;10.80;7.67;;;;;;;3.21;69.89;94009.72;5013342;28;20169;-69
2021/03/23 02:41:50;;;;;;;12.93;6.35;;;;;;;3.15;70.06;94009.13;5012114;28;20268;-70
2021/03/23 02:44:16;;;;;;;11.10;6.40;;;;;;;3.23;69.92;94008.31;5011517;28;20543;-70
2021/03/23 02:46:41;;;;;;;8.73;5.60;;;;;;;3.32;68.70;94001.13;5013184;28;20181;-70
2021/03/23 02:49:07;;;;;;;9.63;5.80;;;;;;;3.30;69.12;94011.19;5013065;28;20643;-70
2021/03/23 02:51:33;;;;;;;9.90;6.27;;;;;;;3.09;69.69;94015.69;5013193;28;20176;-70
2021/03/23 02:53:58;;;;;;;10.33;6.77;;;;;;;2.69;71.17;94016.00;5011446;28;20292;-69
2021/03/23 02:56:24;;;;;;;9.67;6.33;;;;;;;2.67;71.87;94015.56;5013049;28;20258;-70
2021/03/23 02:58:49;;;;;;;10.77;5.93;;;;;;;2.88;71.00;94013.75;5012886;28;20600;-71
2021/03/23 03:01:16;;;;;;;12.17;7.30;;;;;;;3.14;69.94;94016.28;5012945;28;20180;-70
2021/03/23 03:03:41;;;;;;;8.40;5.95;;;;;;;3.34;69.54;94017.41;5012662;28;20181;-70
2021/03/23 03:06:07;;;;;;;11.10;7.30;;;;;;;3.37;69.96;94014.13;5012659;28;20188;-70
2021/03/23 03:08:33;;;;;;;9.33;6.50;;;;;;;3.23;68.97;93996.97;5011314;28;20660;-71
2021/03/23 03:10:58;;;;;;;10.63;6.43;;;;;;;3.48;68.87;94019.81;5012590;28;20200;-70
2021/03/23 03:13:24;;;;;;;10.17;6.60;;;;;;;3.43;68.85;94023.41;5011561;28;20557;-69
2021/03/23 03:15:51;;;;;;;16.93;8.37;;;;;;;3.41;68.62;94028.22;5012427;28;20303;-70
2021/03/23 03:18:16;;;;;;;18.13;10.50;;;;;;;3.34;69.32;94025.31;5012573;28;20281;-70
2021/03/23 03:20:42;;;;;;;21.03;11.90;;;;;;;3.49;69.29;94026.63;5012442;28;20197;-69
2021/03/23 03:23:08;;;;;;;22.90;12.63;;;;;;;3.35;69.42;94024.22;5011197;28;20594;-69
2021/03/23 03:25:33;;;;;;;20.27;11.87;;;;;;;3.36;69.56;94038.19;5012286;28;20195;-70
2021/03/23 03:27:58;;;;;;;21.57;11.83;;;;;;;3.33;69.75;94034.31;5012495;28;20188;-70
2021/03/23 03:30:27;;;;;;;22.27;12.77;;;;;;;3.21;70.12;94036.88;5010922;28;20272;-70
2021/03/23 03:32:52;;;;;;;23.17;13.73;;;;;;;3.25;70.20;94035.13;5012460;28;20181;-71
2021/03/23 03:35:18;;;;;;;22.67;12.80;;;;;;;3.07;70.65;94042.38;5012328;28;20205;-70
2021/03/23 03:37:45;;;;;;;20.33;12.57;;;;;;;3.22;70.22;94046.34;5011929;28;20231;-69
2021/03/23 03:40:11;;;;;;;25.08;13.55;;;;;;;3.33;69.96;94033.56;5012271;28;20203;-69
2021/03/23 03:42:37;;;;;;;20.20;11.95;;;;;;;3.36;69.75;94040.81;5011938;28;20212;-70
2021/03/23 03:45:06;;;;;;;22.20;11.20;;;;;;;3.38;69.84;94041.28;5012252;28;20640;-71
2021/03/23 03:47:32;;;;;;;19.35;11.57;;;;;;;3.45;68.81;94052.09;4994611;28;20557;-69
2021/03/23 03:49:57;;;;;;;19.73;10.90;;;;;;;3.25;69.67;94045.69;5014557;28;20181;-69
2021/03/23 03:52:23;;;;;;;20.27;10.00;;;;;;;3.26;70.06;94051.75;5025603;28;20224;-70
2021/03/23 03:54:48;;;;;;;18.33;10.33;;;;;;;3.28;69.92;94045.06;5031807;28;20196;-69
2021/03/23 03:57:14;;;;;;;17.57;10.03;;;;;;;3.22;69.76;94048.22;5015265;28;20176;-70
2021/03/23 03:59:39;;;;;;;17.83;10.40;;;;;;;3.09;70.46;94052.63;5012045;28;20169;-70
2021/03/23 04:02:05;;;;;;;20.13;10.60;;;;;;;3.04;70.42;94053.56;5010611;28;20201;-70
2021/03/23 04:04:30;;;;;;;18.03;10.13;;;;;;;3.08;70.52;94051.81;5011707;28;20551;-71
2021/03/23 04:06:56;;;;;;;17.63;10.90;;;;;;;3.05;70.44;94055.09;5011879;28;20157;-69
2021/03/23 04:09:21;;;;;;;19.03;10.67;;;;;;;3.02;70.32;94054.97;5011605;28;20640;-69
2021/03/23 04:11:47;;;;;;;22.60;11.47;;;;;;;3.01;71.04;94054.19;5011855;28;20169;-70
2021/03/23 04:14:12;;;;;;;18.30;10.63;;;;;;;3.18;70.36;94053.34;5011596;28;20593;-70
2021/03/23 04:16:38;;;;;;;21.17;11.00;;;;;;;3.15;70.14;94057.41;5011772;28;20327;-70
2021/03/23 04:19:03;;;;;;;20.50;11.33;;;;;;;3.30;70.01;94052.66;5009847;28;20193;-70
2021/03/23 04:21:29;;;;;;;18.20;11.13;;;;;;;3.31;69.35;94060.28;5011810;28;20223;-70
2021/03/23 04:23:54;;;;;;;20.93;12.00;;;;;;;3.38;69.45;94068.44;5011602;28;20208;-71
2021/03/23 04:26:20;;;;;;;21.67;12.17;;;;;;;3.35;69.56;94066.44;5011611;28;20197;-70
2021/03/23 04:28:45;;;;;;;18.90;11.83;;;;;;;3.30;69.82;94073.75;5010341;28;20224;-69
2021/03/23 04:31:32;;;;;;;20.13;11.17;;;;;;;3.22;69.48;94075.34;5011337;28;20169;-69
2021/03/23 04:33:57;;;;;;;23.25;11.60;;;;;;;3.18;69.13;94075.22;4996163;28;20185;-71
2021/03/23 04:36:23;;;;;;;18.97;10.17;;;;;;;3.12;69.01;94071.19;5011290;28;20211;-71
2021/03/23 04:38:48;;;;;;;18.20;11.53;;;;;;;3.13;69.43;94083.28;5011521;28;20169;-70
2021/03/23 04:41:14;;;;;;;20.33;10.33;;;;;;;3.30;69.55;94079.03;5011374;28;20170;-71
2021/03/23 04:43:41;;;;;;;20.03;11.43;;;;;;;3.38;69.59;94088.78;5011519;28;20227;-70
2021/03/23 04:46:07;;;;;;;16.77;10.10;;;;;;;3.36;68.97;94083.03;5011324;28;20184;-71
2021/03/23 04:48:32;;;;;;;16.60;9.90;;;;;;;3.34;69.56;94093.16;5010333;28;20598;-70
2021/03/23 04:50:58;;;;;;;16.67;11.07;;;;;;;3.50;68.88;94096.78;5011287;28;20628;-70
2021/03/23 04:53:26;;;;;;;16.67;9.87;;;;;;;3.45;68.92;94100.38;5011161;28;20236;-70
2021/03/23 04:55:52;;;;;;;17.08;9.38;;;;;;;3.51;67.98;94092.28;5009943;28;20212;-70
2021/03/23 04:58:18;;;;;;;13.90;8.90;;;;;;;3.59;68.40;94100.16;5011470;28;20181;-70
2021/03/23 05:00:43;;;;;;;13.93;8.43;;;;;;;3.56;68.24;94092.09;5009717;28;20268;-71
2021/03/23 05:03:31;;;;;;;16.47;9.30;;;;;;;3.68;67.67;94094.81;5011167;28;20165;-71
2021/03/23 05:05:58;;;;;;;14.52;8.73;;;;;;;3.24;69.09;94096.91;5010902;28;20181;-71
2021/03/23 05:08:24;;;;;;;14.63;8.48;;;;;;;3.38;69.78;94104.63;5011277;28;20208;-71
2021/03/23 05:10:50;;;;;;;15.40;9.70;;;;;;;3.48;68.47;94098.19;5011213;28;20169;-71
2021/03/23 05:13:15;;;;;;;15.37;9.13;;;;;;;3.55;68.55;94099.25;5011328;28;20556;-72
2021/03/23 05:15:41;;;;;;;13.30;8.10;;;;;;;3.29;69.63;94096.72;4993841;28;20713;-71
2021/03/23 05:18:06;;;;;;;15.30;8.80;;;;;;;3.38;68.18;94100.13;5010914;28;20303;-71
2021/03/23 05:20:32;;;;;;;16.73;9.90;;;;;;;3.58;66.98;94105.75;5011192;28;20174;-69
2021/03/23 05:22:57;;;;;;;14.60;8.43;;;;;;;3.66;65.97;94100.44;5010961;28;20197;-71
2021/03/23 05:25:23;;;;;;;13.20;8.43;;;;;;;3.27;67.55;94098.94;5011264;28;20196;-71
2021/03/23 05:27:49;;;;;;;14.57;8.77;;;;;;;3.39;68.56;94098.25;5009978;28;20600;-69
2021/03/23 05:30:15;;;;;;;14.07;9.23;;;;;;;3.51;67.73;94105.47;5010880;28;20189;-71
2021/03/23 05:32:40;;;;;;;13.93;9.13;;;;;;;3.74;65.80;94104.09;5013053;28;20188;-71
2021/03/23 05:35:07;;;;;;;21.97;9.80;;;;;;;3.60;66.17;94111.50;5014438;28;20205;-71
2021/03/23 05:37:33;;;;;;;11.65;8.13;;;;;;;3.58;65.54;94103.09;5014326;28;20173;-71
2021/03/23 05:39:58;;;;;;;14.43;8.63;;;;;;;3.49;66.20;94110.31;5014263;28;20199;-71
2021/03/23 05:42:40;;;;;;;13.50;8.30;;;;;;;3.63;65.04;94111.63;5014461;28;20173;-71
2021/03/23 05:45:23;;;;;;;11.18;7.15;;;;;;;3.67;64.49;94109.13;5014403;28;20169;-71
2021/03/23 05:48:20;;;;;;;11.50;7.25;;;;;;;3.67;65.34;94117.81;4997285;28;20185;-71
2021/03/23 05:51:13;;;;;;;10.93;8.02;;;;;;;3.45;65.61;94116.22;5014294;28;20172;-71
2021/03/23 05:53:44;;;;;;;11.38;7.57;;;;;;;3.52;64.75;94120.22;5030102;28;20216;-71
2021/03/23 05:56:09;;;;;;;10.55;6.72;;;;;;;3.52;65.11;94125.50;5016795;28;20197;-72
2021/03/23 05:58:36;;;;;;;11.87;7.10;;;;;;;3.57;65.12;94134.00;4999887;28;20183;-71
2021/03/23 06:01:07;;;;;;;11.98;8.32;;;;;;;3.67;64.75;94141.56;5015893;28;20562;-71
2021/03/23 06:03:50;;;;;;;13.45;7.90;;;;;;;3.22;66.35;94133.41;5016648;28;20267;-71
2021/03/23 06:06:40;;;;;;;12.32;7.88;;;;;;;3.43;65.87;94139.53;5016731;28;20219;-71
2021/03/23 06:09:05;;;;;;;10.80;7.07;;;;;;;3.64;65.34;94133.50;5033461;28;20263;-71
2021/03/23 06:11:43;;;;;;;21.77;8.83;;;;;;;3.55;64.97;94141.50;5015170;28;20702;-71
2021/03/23 06:14:40;;;;;;;11.75;7.07;;;;;;;3.59;65.05;94138.97;5033512;28;20180;-71
2021/03/23 06:17:15;;;;;;;10.55;6.85;;;;;;;3.76;64.52;94143.38;5033417;28;20187;-70
2021/03/23 06:19:42;;;;;;;13.05;7.32;;;;;;;3.94;64.04;94142.22;5033192;28;20702;-70
2021/03/23 06:22:19;;;;;;;9.30;6.82;;;;;;;3.85;64.75;94146.75;5015608;28;20216;-70
2021/03/23 06:25:17;;;;;;;11.85;6.57;;;;;;;3.51;63.22;94150.34;4999921;28;20180;-71
2021/03/23 06:27:53;;;;;;;10.23;6.30;;;;;;;3.56;65.43;94152.81;4953019;29;20221;-69
2021/03/23 06:31:06;;;;;;;13.50;7.65;;;;;;;3.73;65.26;94158.00;4937925;29;20193;-69
2021/03/23 06:33:31;;;;;;;13.35;6.80;;;;;;;3.69;64.62;94155.22;4858455;29;20308;-70
2021/03/23 06:35:59;;;;;;;14.10;7.67;;;;;;;3.69;64.87;94159.72;4858902;29;20309;-70
2021/03/23 06:38:30;;;;;;;13.55;7.30;;;;;;;3.83;65.35;94152.38;4842947;29;20776;-69
2021/03/23 06:41:16;;;;;;;15.45;7.65;;;;;;;3.88;63.52;94162.75;4850602;29;20194;-69
2021/03/23 06:43:43;;;;;;;9.82;6.65;;;;;;;3.96;64.30;94172.47;4858712;29;20209;-70
2021/03/23 06:46:41;;;;;;;9.50;6.03;;;;;;;4.05;61.90;94169.03;4861721;29;20268;-69
2021/03/23 06:49:12;;;;;;;11.38;7.22;;;;;;;3.92;62.84;94168.16;4840071;29;20569;-70
2021/03/23 06:51:56;;;;;;;12.20;7.15;;;;;;;4.09;63.25;94169.91;4839640;29;20584;-71
2021/03/23 06:54:25;;;;;;;12.07;7.40;;;;;;;4.23;62.54;94171.22;4840105;29;20198;-71
2021/03/23 06:57:00;;;;;;;8.27;5.55;;;;;;;4.42;60.51;94175.28;4839151;29;20238;-71
2021/03/23 06:59:25;;;;;;;9.40;5.45;;;;;;;4.43;59.99;94176.81;4837128;29;20199;-71
2021/03/23 07:01:52;;;;;;;8.07;5.53;;;;;;;4.28;61.46;94177.41;4840795;29;20198;-70
2021/03/23 07:04:35;;;;;;;10.85;6.82;;;;;;;3.86;62.20;94183.41;4854086;29;20261;-71
2021/03/23 07:07:21;;;;;;;9.52;6.03;;;;;;;4.00;63.50;94183.19;4890708;29;20606;-72
2021/03/23 07:09:52;;;;;;;8.82;6.00;;;;;;;4.38;61.51;94190.25;4928453;28;20182;-71
2021/03/23 07:12:18;;;;;;;11.02;6.65;;;;;;;4.42;60.93;94188.50;4971140;28;20281;-71
2021/03/23 07:14:46;;;;;;;14.83;8.37;;;;;;;4.49;62.04;94188.78;4971110;28;20178;-71
2021/03/23 07:17:15;;;;;;;9.68;6.32;;;;;;;4.41;59.59;94190.38;4971256;28;20241;-70
2021/03/23 07:19:52;;;;;;;7.85;5.93;;;;;;;4.27;59.77;94189.84;4989739;28;20182;-70
2021/03/23 07:22:33;;;;;;;11.07;5.78;;;;;;;4.38;59.60;94191.03;4990650;28;20189;-69
2021/03/23 07:24:59;;;;;;;11.00;5.82;;;;;;;4.07;60.60;94203.81;5028261;28;20184;-71
2021/03/23 07:27:28;;;;;;;8.40;5.77;;;;;;;4.37;60.25;94201.91;5051892;28;20183;-71
2021/03/23 07:30:24;;;;;;;9.65;6.03;;;;;;;4.55;59.27;94202.56;5034000;28;20172;-70
2021/03/23 07:32:50;;;;;;;9.88;6.32;;;;;;;4.40;59.77;94203.91;5051659;28;20249;-70
2021/03/23 07:35:35;;;;;;;10.70;7.03;;;;;;;4.61;60.25;94211.84;5033755;28;20215;-69
2021/03/23 07:38:29;;;;;;;9.48;6.18;;;;;;;4.24;61.07;94222.97;5035409;28;20176;-70
2021/03/23 07:40:54;;;;;;;8.77;5.90;;;;;;;4.18;62.07;94215.56;5014311;28;20267;-69
2021/03/23 07:43:32;;;;;;;9.47;5.87;;;;;;;4.23;62.46;94220.66;5031545;28;20256;-69
2021/03/23 07:46:20;;;;;;;15.45;7.55;;;;;;;4.11;62.23;94226.63;5031833;28;20709;-70
2021/03/23 07:49:09;;;;;;;12.95;7.28;;;;;;;4.07;62.55;94223.06;5013726;28;20674;-73
2021/03/23 07:51:41;;;;;;;11.82;7.38;;;;;;;4.20;64.19;94229.22;5016755;28;20531;-73
2021/03/23 07:54:29;;;;;;;10.13;7.13;;;;;;;4.05;61.76;94225.28;4998931;28;20184;-71
2021/03/23 07:57:20;;;;;;;13.52;7.88;;;;;;;4.01;62.89;94220.94;5033822;28;20294;-72
2021/03/23 07:59:54;;;;;;;13.15;7.60;;;;;;;4.34;61.10;94221.06;5024390;28;20187;-71
2021/03/23 08:02:58;;;;;;;15.00;8.10;;;;;;;4.37;60.17;94223.81;5029792;28;20185;-70
2021/03/23 08:05:28;;;;;;;11.70;6.75;;;;;;;4.52;60.62;94230.41;5024233;28;20179;-71
2021/03/23 08:08:16;;;;;;;9.93;5.88;;;;;;;4.16;60.62;94229.09;4994203;28;20314;-72
2021/03/23 08:11:18;;;;;;;7.85;4.90;;;;;;;3.92;62.42;94239.47;5029696;28;20263;-71
2021/03/23 08:13:45;;;;;;;6.35;4.97;;;;;;;4.23;61.19;94229.34;5014290;28;20178;-71
2021/03/23 08:16:16;;;;;;;7.03;4.95;;;;;;;4.28;60.79;94232.91;5013056;28;20287;-72
2021/03/23 08:18:53;;;;;;;6.38;4.97;;;;;;;4.29;60.66;94229.94;4997158;28;20537;-71
2021/03/23 08:21:40;;;;;;;8.90;5.05;;;;;;;4.35;60.59;94236.59;5013321;28;20168;-71
2021/03/23 08:24:05;;;;;;;8.45;4.80;;;;;;;4.35;61.13;94239.22;5029583;28;20184;-71
2021/03/23 08:26:55;;;;;;;7.67;4.63;;;;;;;4.47;59.84;94239.31;5030080;28;20203;-74
2021/03/23 08:29:29;;;;;;;7.57;4.80;;;;;;;4.21;62.47;94236.84;5031038;28;20185;-71
2021/03/23 08:32:15;;;;;;;6.30;4.00;;;;;;;4.25;62.10;94242.25;4993310;28;20243;-71
2021/03/23 08:34:44;;;;;;;6.03;4.10;;;;;;;4.18;60.53;94241.97;4995184;28;20555;-70
2021/03/23 08:37:15;;;;;;;6.15;4.25;;;;;;;3.89;62.43;94240.88;5030116;28;20180;-70
2021/03/23 08:39:44;;;;;;;5.32;3.83;;;;;;;3.89;62.58;94242.75;5031259;28;20180;-70
2021/03/23 08:42:14;;;;;;;4.97;3.70;;;;;;;3.93;63.29;94248.97;5013461;28;20180;-70
2021/03/23 08:45:01;;;;;;;6.95;4.55;;;;;;;3.79;63.39;94240.47;5004635;28;20168;-71
2021/03/23 08:47:33;;;;;;;5.97;4.60;;;;;;;3.82;63.25;94243.25;5011862;28;20184;-70
2021/03/23 08:50:19;;;;;;;5.32;4.07;;;;;;;4.15;62.06;94232.84;5015063;28;20166;-71
2021/03/23 08:52:47;;;;;;;5.05;3.83;;;;;;;4.37;60.38;94231.75;5012991;28;20209;-70
2021/03/23 08:55:31;;;;;;;6.75;3.92;;;;;;;4.03;61.68;94231.94;5021228;28;20577;-69
2021/03/23 08:58:00;;;;;;;5.82;3.95;;;;;;;3.85;63.26;94239.19;5032774;28;20177;-71
2021/03/23 09:00:35;;;;;;;5.65;4.38;;;;;;;3.96;62.32;94238.50;5013708;28;20172;-69
2021/03/23 09:03:06;;;;;;;6.85;4.25;;;;;;;3.97;63.27;94229.50;5039462;28;20183;-73
2021/03/23 09:05:38;;;;;;;6.45;4.07;;;;;;;3.65;61.27;94228.25;5018932;28;20180;-69
2021/03/23 09:08:17;;;;;;;6.45;4.35;;;;;;;3.78;62.40;94229.13;5036563;28;20176;-69
2021/03/23 09:10:54;;;;;;;5.50;3.83;;;;;;;3.89;61.29;94242.75;5027838;28;20622;-69
2021/03/23 09:13:45;;;;;;;5.70;4.22;;;;;;;3.60;61.54;94248.78;5034439;28;20180;-68
2021/03/23 09:16:11;;;;;;;5.30;3.70;;;;;;;3.65;61.29;94241.47;5030871;28;20303;-69
2021/03/23 09:18:37;;;;;;;6.90;4.20;;;;;;;4.06;61.37;94237.38;5039505;28;20713;-70
2021/03/23 09:21:06;;;;;;;5.30;4.13;;;;;;;4.11;61.99;94239.06;5033210;28;20250;-71
2021/03/23 09:23:37;;;;;;;7.57;4.70;;;;;;;4.07;60.48;94238.16;5051687;28;20226;-73
2021/03/23 09:26:06;;;;;;;5.85;4.50;;;;;;;3.90;60.46;94239.78;5034215;28;20164;-71
2021/03/23 09:28:45;;;;;;;7.43;4.60;;;;;;;3.94;60.22;94232.00;5016371;28;20532;-71
2021/03/23 09:31:52;;;;;;;6.32;4.47;;;;;;;3.90;61.12;94242.44;5034063;28;20232;-74
2021/03/23 09:34:55;;;;;;;8.05;4.57;;;;;;;4.07;62.81;94235.50;4953645;29;20194;-69
2021/03/23 09:37:48;;;;;;;9.32;6.38;;;;;;;4.60;58.39;94236.72;4956928;28;20536;-70
2021/03/23 09:40:19;;;;;;;16.38;4.75;;;;;;;4.85;57.73;94238.41;4973021;28;20256;-71
2021/03/23 09:42:51;;;;;;;8.00;4.87;;;;;;;4.69;57.36;94242.72;4973020;28;20568;-71
2021/03/23 09:45:28;;;;;;;9.33;5.50;;;;;;;4.22;58.53;94248.19;4970411;28;20984;-70
2021/03/23 09:47:55;;;;;;;11.63;5.68;;;;;;;4.34;58.99;94245.63;4956100;28;20437;-71
2021/03/23 09:50:41;;;;;;;7.72;5.10;;;;;;;4.88;56.67;94243.06;4967726;28;20186;-71
2021/03/23 09:55:41;;;;;;;11.85;5.20;;;;;;;5.40;56.93;94247.88;5062015;23;20237;-72
2021/03/23 09:58:13;;;;;;;8.67;5.43;;;;;;;5.55;57.73;94247.22;4935660;29;20189;-71
2021/03/23 10:00:38;;;;;;;7.60;4.63;;;;;;;5.72;55.73;94246.25;4955622;29;20171;-71
2021/03/23 10:03:34;;;;;;;7.50;4.90;;;;;;;5.58;55.32;94243.16;4955684;29;20460;-73
2021/03/23 10:06:05;;;;;;;7.10;4.70;;;;;;;5.51;53.18;94243.72;4949072;29;20233;-72
2021/03/23 10:08:35;;;;;;;6.50;4.50;;;;;;;4.94;55.82;94256.88;4959931;28;20190;-72
2021/03/23 10:11:14;;;;;;;7.05;4.55;;;;;;;4.68;57.32;94230.59;4959975;28;20461;-73
2021/03/23 10:13:45;;;;;;;7.73;4.60;;;;;;;4.71;57.21;94248.47;4942622;28;20680;-72
2021/03/23 10:16:19;;;;;;;6.23;4.63;;;;;;;4.88;57.81;94240.41;4973565;28;20516;-71
2021/03/23 10:18:44;;;;;;;7.63;5.13;;;;;;;4.70;57.97;94249.56;4958711;28;20410;-71
2021/03/23 10:21:12;;;;;;;7.77;4.97;;;;;;;4.95;56.44;94245.19;4957151;28;20836;-71
2021/03/23 10:23:52;;;;;;;8.97;5.47;;;;;;;4.89;58.03;94239.31;5315514;23;20235;-73
2021/03/23 10:26:17;;;;;;;9.95;5.28;;;;;;;4.99;56.63;94238.91;4987258;28;21028;-73
2021/03/23 10:28:55;;;;;;;6.13;4.60;;;;;;;4.65;56.55;94244.47;4974679;28;20186;-74
2021/03/23 10:31:34;;;;;;;8.10;4.28;;;;;;;4.77;57.86;94257.78;4993999;28;20181;-73
2021/03/23 10:34:08;;;;;;;7.15;4.72;;;;;;;4.68;57.07;94255.19;4993932;28;20231;-73
2021/03/23 10:36:43;;;;;;;7.30;4.65;;;;;;;4.58;58.54;94258.19;4993575;28;20197;-72
2021/03/23 10:39:31;;;;;;;7.55;4.85;;;;;;;4.54;60.91;94259.16;4993360;28;20208;-73
2021/03/23 10:42:11;;;;;;;4.68;4.03;;;;;;;4.68;58.49;94255.19;4993656;28;20188;-71
2021/03/23 10:44:36;;;;;;;7.43;4.82;;;;;;;4.53;58.73;94261.03;4962209;28;20260;-74
2021/03/23 10:47:02;;;;;;;6.30;4.43;;;;;;;4.70;58.94;94258.28;4975370;28;20216;-74
2021/03/23 10:49:37;;;;;;;7.33;4.13;;;;;;;4.53;56.80;94260.25;4993975;28;20173;-74
2021/03/23 10:52:17;;;;;;;7.50;4.75;;;;;;;4.27;59.86;94260.44;4979953;28;20176;-74
2021/03/23 10:54:43;;;;;;;5.72;4.22;;;;;;;4.52;59.44;94272.72;4990960;28;20239;-74
2021/03/23 10:57:28;;;;;;;4.73;3.93;;;;;;;4.49;59.11;94268.84;4992524;28;20572;-74
2021/03/23 10:59:54;;;;;;;8.10;4.55;;;;;;;4.69;59.68;94258.59;4992910;28;20246;-75
2021/03/23 11:02:23;;;;;;;7.87;5.33;;;;;;;4.69;58.62;94254.09;4992179;28;20178;-75
2021/03/23 11:05:08;;;;;;;9.05;5.43;;;;;;;4.43;59.26;94264.84;4975328;28;20170;-70
2021/03/23 11:07:33;;;;;;;6.85;5.38;;;;;;;4.61;61.38;94260.22;4975573;28;20205;-68
2021/03/23 11:10:00;;;;;;;15.10;6.80;;;;;;;4.76;58.10;94264.13;4975264;28;20640;-69
2021/03/23 11:12:27;;;;;;;11.07;5.93;;;;;;;4.57;58.07;94263.81;4974857;28;20260;-68
2021/03/23 11:14:54;;;;;;;8.43;5.20;;;;;;;4.81;57.87;94256.00;4967493;28;20264;-69
2021/03/23 11:17:21;;;;;;;8.00;4.88;;;;;;;4.84;58.48;94263.31;5012181;28;20651;-69
2021/03/23 11:19:50;;;;;;;7.43;5.03;;;;;;;5.00;55.65;94260.84;5012227;28;20195;-70
2021/03/23 11:22:20;;;;;;;7.80;4.93;;;;;;;5.29;53.97;94262.63;4995215;28;20173;-74
2021/03/23 11:24:46;;;;;;;7.17;5.10;;;;;;;5.20;54.41;94257.41;5012170;28;20718;-76
2021/03/23 11:27:11;;;;;;;13.53;7.43;;;;;;;4.94;57.05;94252.34;5012088;28;20421;-79
2021/03/23 11:29:37;;;;;;;8.43;4.90;;;;;;;5.00;52.90;94255.56;4996694;28;20166;-78
2021/03/23 11:32:03;;;;;;;10.53;6.30;;;;;;;5.06;56.42;94258.78;4975994;28;20186;-72
2021/03/23 11:34:28;;;;;;;7.97;5.33;;;;;;;5.43;54.80;94249.84;4992772;28;20609;-74
2021/03/23 11:36:54;;;;;;;7.70;4.90;;;;;;;5.69;53.64;94254.09;4990162;28;20213;-78
2021/03/23 11:39:20;;;;;;;8.40;4.67;;;;;;;5.68;52.33;94255.22;4992556;28;20170;-71
2021/03/23 11:42:08;;;;;;;8.45;5.20;;;;;;;5.73;53.23;94252.34;4974653;28;20190;-81
2021/03/23 11:44:40;;;;;;;6.67;4.10;;;;;;;5.89;51.64;94242.63;4958348;28;20231;-79
2021/03/23 11:47:41;;;;;;;8.90;5.63;;;;;;;5.92;51.69;94244.66;4968029;28;20579;-77
2021/03/23 11:50:11;;;;;;;9.60;6.07;;;;;;;5.85;51.49;94236.47;4992238;28;20404;-78
2021/03/23 11:52:40;;;;;;;10.90;5.63;;;;;;;5.89;51.67;94247.94;4990977;28;20424;-72
2021/03/23 11:55:08;;;;;;;7.93;5.17;;;;;;;5.81;53.50;94246.94;4984331;28;20519;-71
2021/03/23 11:57:35;;;;;;;9.23;5.80;;;;;;;5.60;55.58;94245.47;4992250;28;20456;-76